Maud, Oklahoma
Current Conditions -  °F | °C
As of 11:15 AM on Sunday 21 Dec 2014 (Local Time) from KSNL Reporting Station
Overcast Overcast  
Wind Chill: 52°   Ceiling: 1300
Heat Index: 52°   Visibility: 7mi
Dew Point: 48°   Wind: 14mph
Humidity: 88%   Direction: 160°SSE
Pressure: 29.98"   Gusts: NA
Location:  35.13°N, 96.78°W
Report Text: KSNL 211715Z AUTO 16012KT 7SM OVC013 11/09 A2998 RMK AO2
Loading
Personal Weather Stations






























Interactive Weather Map New forecast layout! Learn more

10-Day Weather Forecast

Advertisements
Track Severe Weather on mobile